createdAt,value
2022-11-29T00:03:20.726Z,6.29
2022-11-29T00:08:18.765Z,6.27
2022-11-29T00:13:10.136Z,6.21
2022-11-29T00:18:08.105Z,6.16
2022-11-29T00:22:59.911Z,6.11
2022-11-29T00:27:55.221Z,6.06
2022-11-29T00:32:55.429Z,6.02
2022-11-29T00:37:56.326Z,5.97
2022-11-29T00:42:59.882Z,5.90
2022-11-29T00:47:50.786Z,5.85
2022-11-29T00:52:43.451Z,5.82
2022-11-29T00:57:57.950Z,5.80
2022-11-29T01:02:52.324Z,5.80
2022-11-29T01:07:58.738Z,5.79
2022-11-29T01:12:54.423Z,5.79
2022-11-29T01:17:49.613Z,5.75
2022-11-29T01:22:45.192Z,5.75
2022-11-29T01:27:38.346Z,5.74
2022-11-29T01:32:38.888Z,5.76
2022-11-29T01:37:32.392Z,5.74
2022-11-29T01:42:27.491Z,5.73
2022-11-29T01:47:27.990Z,5.70
2022-11-29T01:52:25.627Z,5.64
2022-11-29T01:57:17.472Z,5.64
2022-11-29T02:02:23.071Z,5.63
2022-11-29T02:07:22.204Z,5.62
2022-11-29T02:12:27.709Z,5.73
2022-11-29T02:17:27.390Z,5.75
2022-11-29T02:22:35.457Z,5.81
2022-11-29T02:28:07.173Z,5.79
2022-11-29T02:33:41.766Z,5.79
2022-11-29T02:38:51.628Z,5.74
2022-11-29T02:44:08.074Z,5.80
2022-11-29T02:49:23.412Z,5.78
2022-11-29T02:54:21.899Z,5.73
2022-11-29T02:59:24.936Z,5.74
2022-11-29T03:04:31.762Z,5.73
2022-11-29T03:09:35.830Z,5.72
2022-11-29T03:14:29.756Z,5.71
2022-11-29T03:19:54.092Z,5.59
2022-11-29T03:25:00.758Z,5.52
2022-11-29T03:29:59.907Z,5.52
2022-11-29T03:35:05.899Z,5.53
2022-11-29T03:40:06.319Z,5.58
2022-11-29T03:45:06.629Z,5.65
2022-11-29T03:50:09.730Z,5.68
2022-11-29T03:55:18.358Z,5.75
2022-11-29T04:00:14.708Z,5.78
2022-11-29T04:05:35.623Z,5.81
2022-11-29T04:10:50.432Z,5.80
2022-11-29T04:16:15.293Z,5.83
2022-11-29T04:21:44.264Z,5.83
2022-11-29T04:27:05.750Z,5.84
2022-11-29T04:32:21.373Z,5.83
2022-11-29T04:37:39.586Z,5.82
2022-11-29T04:43:00.672Z,5.79
2022-11-29T04:48:01.845Z,5.75
2022-11-29T04:53:28.611Z,5.72
2022-11-29T04:58:33.821Z,5.63
2022-11-29T05:03:37.295Z,5.67
2022-11-29T05:08:38.762Z,5.65
2022-11-29T05:13:58.215Z,5.66
2022-11-29T05:19:22.053Z,5.61
2022-11-29T05:24:30.497Z,5.59
2022-11-29T05:29:42.541Z,5.60
2022-11-29T05:35:11.673Z,5.66
2022-11-29T05:40:39.355Z,5.71
2022-11-29T05:45:38.387Z,5.73
2022-11-29T05:50:36.796Z,5.79
2022-11-29T05:55:52.139Z,5.83
2022-11-29T06:00:56.086Z,5.87
2022-11-29T06:05:53.179Z,5.90
2022-11-29T06:10:58.867Z,5.91
2022-11-29T06:16:24.062Z,5.99
2022-11-29T06:21:30.272Z,6.01
2022-11-29T06:26:37.575Z,6.04
2022-11-29T06:31:38.528Z,6.05
2022-11-29T06:36:44.224Z,6.06
2022-11-29T06:41:36.999Z,6.07
2022-11-29T06:46:50.644Z,6.07
2022-11-29T06:51:57.430Z,6.12
2022-11-29T06:57:01.491Z,6.13
2022-11-29T07:02:06.016Z,6.14
2022-11-29T07:07:00.446Z,6.10
2022-11-29T07:11:58.980Z,6.18
2022-11-29T07:17:08.193Z,6.23
2022-11-29T07:22:09.016Z,6.24
2022-11-29T07:27:07.283Z,6.33
2022-11-29T07:32:11.485Z,6.29
2022-11-29T07:37:18.810Z,6.40
2022-11-29T07:42:20.860Z,6.44
2022-11-29T07:47:17.352Z,6.47
2022-11-29T07:52:18.271Z,6.52
2022-11-29T07:57:08.443Z,6.56
2022-11-29T08:01:58.950Z,6.56
2022-11-29T08:06:52.594Z,6.67
2022-11-29T08:11:44.142Z,6.66
2022-11-29T08:16:39.371Z,6.84
2022-11-29T08:21:32.130Z,6.75
2022-11-29T08:26:31.812Z,6.93
2022-11-29T08:31:33.059Z,6.99
2022-11-29T08:36:33.050Z,7.07
2022-11-29T08:41:26.045Z,7.07
2022-11-29T08:46:18.735Z,7.05
2022-11-29T08:51:11.238Z,7.12
2022-11-29T08:56:23.629Z,7.13
2022-11-29T09:01:30.195Z,7.15
2022-11-29T09:06:31.428Z,7.18
2022-11-29T09:11:26.385Z,7.25
2022-11-29T09:16:35.414Z,7.32
2022-11-29T09:21:34.623Z,7.36
2022-11-29T09:26:27.671Z,7.36
2022-11-29T09:31:28.493Z,7.48
2022-11-29T09:36:27.856Z,7.57
2022-11-29T09:41:48.206Z,7.62
2022-11-29T09:47:03.253Z,7.72
2022-11-29T09:52:07.338Z,7.78
2022-11-29T09:57:12.863Z,7.86
2022-11-29T10:02:22.182Z,7.89
2022-11-29T10:07:23.536Z,7.97
2022-11-29T10:12:23.792Z,8.07
2022-11-29T10:17:29.207Z,8.19
2022-11-29T10:22:29.145Z,8.28
2022-11-29T10:27:31.658Z,8.34
2022-11-29T10:32:31.298Z,8.35
2022-11-29T10:37:30.164Z,8.31
2022-11-29T10:42:38.250Z,8.30
2022-11-29T10:47:34.386Z,8.40
2022-11-29T10:52:38.857Z,8.44
2022-11-29T10:57:33.242Z,8.42
2022-11-29T11:02:27.976Z,8.56
2022-11-29T11:07:36.899Z,8.55
2022-11-29T11:12:37.205Z,8.56
2022-11-29T11:17:34.208Z,8.49
2022-11-29T11:22:35.353Z,8.47
2022-11-29T11:27:40.190Z,8.38
2022-11-29T11:32:30.227Z,8.39
2022-11-29T11:37:33.862Z,8.39
2022-11-29T11:42:39.687Z,8.42
2022-11-29T11:47:38.681Z,8.43
2022-11-29T11:52:50.063Z,8.42
2022-11-29T11:57:41.188Z,8.40
2022-11-29T12:02:45.110Z,8.47
2022-11-29T12:13:03.307Z,8.41
2022-11-29T12:18:03.940Z,8.46
2022-11-29T12:23:25.998Z,8.60
2022-11-29T12:28:22.008Z,8.71
2022-11-29T12:33:32.027Z,8.77
2022-11-29T12:38:52.351Z,8.75
2022-11-29T12:44:07.926Z,8.81
2022-11-29T12:49:09.113Z,8.96
2022-11-29T12:54:36.329Z,9.13
2022-11-29T12:59:53.014Z,9.28
2022-11-29T13:04:59.911Z,9.28
2022-11-29T13:10:32.911Z,9.22
2022-11-29T13:15:34.256Z,9.25
2022-11-29T13:20:44.263Z,9.25
2022-11-29T13:25:43.844Z,9.24
2022-11-29T13:30:51.403Z,9.18
2022-11-29T13:35:56.025Z,9.18
2022-11-29T13:41:09.572Z,9.21
2022-11-29T13:46:17.731Z,9.21
2022-11-29T13:51:26.509Z,9.10
2022-11-29T13:56:37.701Z,9.24
2022-11-29T14:01:33.707Z,9.17
2022-11-29T14:06:41.019Z,9.11
2022-11-29T14:11:37.579Z,9.07
2022-11-29T14:16:39.529Z,9.13
2022-11-29T14:21:53.061Z,9.12
2022-11-29T14:26:51.063Z,9.08
2022-11-29T14:32:27.035Z,9.02
2022-11-29T14:37:50.555Z,8.91
2022-11-29T14:42:49.817Z,8.82
2022-11-29T14:47:55.091Z,8.87
2022-11-29T14:52:57.895Z,8.75
2022-11-29T14:58:28.194Z,8.81
2022-11-29T15:03:39.446Z,8.74
2022-11-29T15:08:47.280Z,8.70
2022-11-29T15:13:48.777Z,8.66
2022-11-29T15:19:34.214Z,8.59
2022-11-29T15:24:30.004Z,8.55
2022-11-29T15:29:24.579Z,8.49
2022-11-29T15:34:30.300Z,8.48
2022-11-29T15:39:40.294Z,8.47
2022-11-29T15:44:43.361Z,8.32
2022-11-29T15:49:39.815Z,8.39
2022-11-29T15:54:42.259Z,8.34
2022-11-29T15:59:42.151Z,8.27
2022-11-29T16:04:34.810Z,8.31
2022-11-29T16:09:36.323Z,8.20
2022-11-29T16:14:31.479Z,8.30
2022-11-29T16:19:29.053Z,8.27
2022-11-29T16:24:24.119Z,8.23
2022-11-29T16:29:32.124Z,8.22
2022-11-29T16:34:44.561Z,8.15
2022-11-29T16:39:38.974Z,8.19
2022-11-29T16:45:03.381Z,8.10
2022-11-29T16:50:25.458Z,8.11
2022-11-29T16:55:23.300Z,8.10
2022-11-29T17:00:27.150Z,8.06
2022-11-29T17:05:26.193Z,8.04
2022-11-29T17:10:21.219Z,8.01
2022-11-29T17:15:16.120Z,7.99
2022-11-29T17:20:23.446Z,8.01
2022-11-29T17:25:19.366Z,7.96
2022-11-29T17:35:21.818Z,7.98
2022-11-29T17:40:16.191Z,7.87
2022-11-29T17:45:13.841Z,7.98
2022-11-29T17:50:06.700Z,7.94
2022-11-29T17:55:03.129Z,7.90
2022-11-29T17:59:59.537Z,7.83
2022-11-29T18:04:51.247Z,7.86
2022-11-29T18:09:51.753Z,7.83
2022-11-29T18:14:52.311Z,7.77
2022-11-29T18:19:52.383Z,7.90
2022-11-29T18:24:49.587Z,7.91
2022-11-29T18:29:48.627Z,7.86
2022-11-29T18:34:43.826Z,7.82
2022-11-29T18:39:40.760Z,7.82
2022-11-29T18:44:41.058Z,7.79
2022-11-29T18:49:36.995Z,7.76
2022-11-29T18:54:35.066Z,7.79
2022-11-29T18:59:46.271Z,7.71
2022-11-29T19:04:54.262Z,7.33
2022-11-29T19:09:48.336Z,7.78
2022-11-29T19:14:42.786Z,7.76
2022-11-29T19:19:49.608Z,7.72
2022-11-29T19:24:47.213Z,7.65
2022-11-29T19:29:57.316Z,7.64
2022-11-29T19:34:58.467Z,7.51
2022-11-29T19:39:51.500Z,7.42
2022-11-29T19:50:06.249Z,7.29
2022-11-29T19:55:03.461Z,7.33
2022-11-29T19:59:57.678Z,7.34
2022-11-29T20:04:51.849Z,7.25
2022-11-29T20:09:45.688Z,7.19
2022-11-29T20:14:36.824Z,7.13
2022-11-29T20:19:30.379Z,7.15
2022-11-29T20:24:25.426Z,6.98
2022-11-29T20:29:30.229Z,6.99
2022-11-29T20:34:22.447Z,7.03
2022-11-29T20:39:26.839Z,7.02
2022-11-29T20:44:24.675Z,6.95
2022-11-29T20:49:19.852Z,6.96
2022-11-29T20:54:13.726Z,6.88
2022-11-29T20:59:06.456Z,6.84
2022-11-29T21:04:00.553Z,6.85
2022-11-29T21:08:57.996Z,6.89
2022-11-29T21:13:54.840Z,6.89
2022-11-29T21:18:53.336Z,6.90
2022-11-29T21:24:18.637Z,6.91
2022-11-29T21:29:21.448Z,6.94
2022-11-29T21:34:12.117Z,6.95
2022-11-29T21:39:07.713Z,6.93
2022-11-29T21:44:12.247Z,6.84
2022-11-29T21:49:08.534Z,6.90
2022-11-29T21:54:05.285Z,6.93
2022-11-29T21:59:06.083Z,6.92
2022-11-29T22:04:01.757Z,6.89
2022-11-29T22:08:55.422Z,6.94
2022-11-29T22:14:08.837Z,6.94
2022-11-29T22:19:03.152Z,6.88
2022-11-29T22:23:56.370Z,6.94
2022-11-29T22:28:59.527Z,6.86
2022-11-29T22:33:55.809Z,6.97
2022-11-29T22:38:49.303Z,6.98
2022-11-29T22:43:41.321Z,6.98
2022-11-29T22:48:38.469Z,6.94
2022-11-29T22:53:33.331Z,6.98
2022-11-29T22:58:39.649Z,6.98
2022-11-29T23:03:33.942Z,6.98
2022-11-29T23:08:34.702Z,6.99
2022-11-29T23:13:30.659Z,7.02
2022-11-29T23:18:20.511Z,7.04
2022-11-29T23:23:10.365Z,7.03
2022-11-29T23:28:17.980Z,7.04
2022-11-29T23:33:24.708Z,7.05
2022-11-29T23:38:16.934Z,7.08
2022-11-29T23:43:20.427Z,7.07
2022-11-29T23:48:13.075Z,7.11
2022-11-29T23:53:03.521Z,6.98
2022-11-29T23:57:53.706Z,7.17
